Old Cairo, Mississippi
Current Conditions -  °F | °C
As of 11:35 AM on Saturday 25 Oct 2014 (Local Time) from KCRX Reporting Station
Clear Clear  
Wind Chill: 75°   Ceiling: Unl
Heat Index: 75°   Visibility: 10mi
Dew Point: 59°   Wind: 5mph
Humidity: 57%   Direction: NA
Pressure: 30.09"   Gusts: NA
Location:  34.6741°N, 88.5234°W
Report Text: KCRX 251635Z AUTO VRB04KT 10SM CLR 24/15 A3009 RMK AO2
Loading
Personal Weather Stations






























Interactive Weather Map
Tropical Storm Tracking
New forecast layout! Learn more

10-Day Weather Forecast

Advertisements
Track Severe Weather on mobile